Time,TemperatureF,DewpointF,PressureIn,WindDirection,WindDirectionDegrees,WindSpeedMPH,WindSpeedGustMPH,Humidity,HourlyPrecipIn,Conditions,Clouds,dailyrainin,SolarRadiationWatts/m^2,SoftwareType,DateUTC
2013-05-16 00:00:00,73.7,70.6,29.85,SSE,158,4.0,12.0,90,0.00,,,0.00,0.00,VWS V14.00,2013-05-16 05:00:00,
2013-05-16 00:15:00,73.7,70.6,29.85,South,180,4.0,15.0,90,0.00,,,0.00,0.00,VWS V14.00,2013-05-16 05:15:00,
2013-05-16 00:30:00,73.7,70.6,29.85,SSE,158,4.0,13.0,90,0.00,,,0.00,0.00,VWS V14.00,2013-05-16 05:30:00,
2013-05-16 00:45:00,73.8,70.7,29.85,South,180,4.0,12.0,90,0.00,,,0.00,0.00,VWS V14.00,2013-05-16 05:45:00,
2013-05-16 01:00:00,73.8,70.7,29.85,South,180,4.0,16.0,90,0.00,,,0.00,0.00,VWS V14.00,2013-05-16 06:00:00,
2013-05-16 01:15:00,73.8,70.7,29.84,South,180,4.0,15.0,90,0.00,,,0.00,0.00,VWS V14.00,2013-05-16 06:15:00,
2013-05-16 01:30:00,73.8,70.7,29.84,SSE,158,4.0,11.0,90,0.00,,,0.00,0.00,VWS V14.00,2013-05-16 06:30:00,
2013-05-16 01:45:00,73.8,70.7,29.84,SSE,158,3.0,10.0,90,0.00,,,0.00,0.00,VWS V14.00,2013-05-16 06:45:00,
2013-05-16 02:00:00,73.8,70.7,29.83,South,180,3.0,14.0,90,0.00,,,0.00,0.00,VWS V14.00,2013-05-16 07:00:00,
2013-05-16 02:15:00,73.8,70.7,29.83,South,180,2.0,11.0,90,0.00,,,0.00,0.00,VWS V14.00,2013-05-16 07:15:00,
2013-05-16 02:30:00,73.9,70.8,29.83,South,180,3.0,11.0,90,0.00,,,0.00,0.00,VWS V14.00,2013-05-16 07:30:00,
2013-05-16 02:45:00,74.0,70.9,29.83,South,180,3.0,13.0,90,0.00,,,0.00,0.00,VWS V14.00,2013-05-16 07:45:00,
2013-05-16 03:00:00,74.0,70.6,29.83,South,180,4.0,13.0,89,0.00,,,0.00,0.00,VWS V14.00,2013-05-16 08:00:00,
2013-05-16 03:15:00,74.0,70.6,29.81,South,180,4.0,13.0,89,0.00,,,0.00,0.00,VWS V14.00,2013-05-16 08:15:00,
2013-05-16 03:30:00,74.0,70.6,29.81,South,170,7.0,7.0,89,0.00,,,0.00,0.00,VWS V14.00,2013-05-16 08:30:00,
2013-05-16 03:45:00,73.9,70.5,29.82,SSW,194,6.0,12.0,89,0.00,,,0.00,0.00,VWS V14.00,2013-05-16 08:45:00,
2013-05-16 04:00:00,74.0,70.6,29.81,South,187,3.0,14.0,89,0.00,,,0.00,0.00,VWS V14.00,2013-05-16 09:00:00,
2013-05-16 04:15:00,74.0,70.6,29.81,SE,144,0.0,17.0,89,0.00,,,0.00,0.00,VWS V14.00,2013-05-16 09:15:00,
2013-05-16 04:30:00,74.0,70.9,29.81,South,180,3.0,11.0,90,0.00,,,0.00,0.00,VWS V14.00,2013-05-16 09:30:00,
2013-05-16 04:45:00,74.0,70.9,29.80,South,180,4.0,10.0,90,0.00,,,0.00,0.00,VWS V14.00,2013-05-16 09:45:00,
2013-05-16 05:00:00,73.9,70.8,29.80,South,180,5.0,14.0,90,0.00,,,0.00,0.00,VWS V14.00,2013-05-16 10:00:00,
2013-05-16 05:15:00,73.9,70.8,29.80,SSE,158,5.0,13.0,90,0.00,,,0.00,0.00,VWS V14.00,2013-05-16 10:15:00,
2013-05-16 05:30:00,73.8,70.7,29.80,SSE,158,5.0,15.0,90,0.00,,,0.00,0.00,VWS V14.00,2013-05-16 10:30:00,
2013-05-16 05:45:00,73.9,70.8,29.80,South,180,4.0,15.0,90,0.00,,,0.00,0.00,VWS V14.00,2013-05-16 10:45:00,
2013-05-16 06:00:00,74.0,70.6,29.79,South,180,4.0,11.0,89,0.00,,,0.00,0.00,VWS V14.00,2013-05-16 11:00:00,
2013-05-16 06:15:00,74.1,71.0,29.80,South,180,4.0,11.0,90,0.00,,,0.00,0.00,VWS V14.00,2013-05-16 11:15:00,
2013-05-16 06:30:00,74.2,71.1,29.82,South,180,3.0,14.0,90,0.00,,,0.00,0.00,VWS V14.00,2013-05-16 11:30:00,
2013-05-16 06:45:00,74.2,70.8,29.85,SSW,202,1.0,4.0,89,0.00,,,0.00,0.00,VWS V14.00,2013-05-16 11:45:00,
2013-05-16 07:00:00,74.2,70.8,29.84,SE,135,1.0,4.0,89,0.00,,,0.00,6.00,VWS V14.00,2013-05-16 12:00:00,
2013-05-16 07:15:00,74.3,70.5,29.86,ESE,112,2.0,7.0,88,0.00,,,0.00,25.00,VWS V14.00,2013-05-16 12:15:00,
2013-05-16 07:30:00,74.6,70.8,29.86,ESE,112,1.0,4.0,88,0.00,,,0.00,34.00,VWS V14.00,2013-05-16 12:30:00,
2013-05-16 07:45:00,74.9,71.1,29.86,ESE,112,1.0,7.0,88,0.00,,,0.00,77.00,VWS V14.00,2013-05-16 12:45:00,
2013-05-16 08:00:00,75.4,71.3,29.85,SSE,158,2.0,6.0,87,0.00,,,0.00,146.00,VWS V14.00,2013-05-16 13:00:00,
2013-05-16 08:15:00,76.4,71.6,29.84,South,180,3.0,7.0,85,0.00,,,0.00,265.00,VWS V14.00,2013-05-16 13:15:00,
2013-05-16 08:30:00,76.9,71.7,29.84,South,180,3.0,9.0,84,0.00,,,0.00,308.00,VWS V14.00,2013-05-16 13:30:00,
2013-05-16 08:45:00,77.2,72.0,29.84,SSE,158,3.0,9.0,84,0.00,,,0.00,368.00,VWS V14.00,2013-05-16 13:45:00,
2013-05-16 09:00:00,77.6,72.0,29.84,South,180,3.0,10.0,83,0.00,,,0.00,421.00,VWS V14.00,2013-05-16 14:00:00,
2013-05-16 09:15:00,77.9,72.7,29.84,South,180,4.0,11.0,84,0.00,,,0.00,464.00,VWS V14.00,2013-05-16 14:15:00,
2013-05-16 09:30:00,78.3,72.4,29.84,South,180,4.0,11.0,82,0.00,,,0.00,537.00,VWS V14.00,2013-05-16 14:30:00,
2013-05-16 09:45:00,79.0,73.0,29.84,South,180,4.0,11.0,82,0.00,,,0.00,479.00,VWS V14.00,2013-05-16 14:45:00,
2013-05-16 10:00:00,78.4,72.4,29.84,SSE,158,4.0,13.0,82,0.00,,,0.00,318.00,VWS V14.00,2013-05-16 15:00:00,
2013-05-16 10:15:00,79.1,72.8,29.83,SE,135,4.0,13.0,81,0.00,,,0.00,348.00,VWS V14.00,2013-05-16 15:15:00,
2013-05-16 10:30:00,79.7,73.0,29.83,SSE,158,4.0,15.0,80,0.00,,,0.00,340.00,VWS V14.00,2013-05-16 15:30:00,
2013-05-16 10:45:00,79.7,72.6,29.83,South,180,5.0,14.0,79,0.00,,,0.00,373.00,VWS V14.00,2013-05-16 15:45:00,
2013-05-16 11:00:00,80.3,72.8,29.83,South,180,5.0,13.0,78,0.00,,,0.00,528.00,VWS V14.00,2013-05-16 16:00:00,
2013-05-16 11:15:00,80.1,73.0,29.82,South,180,5.0,16.0,79,0.00,,,0.00,336.00,VWS V14.00,2013-05-16 16:15:00,
2013-05-16 11:30:00,81.4,73.5,29.82,South,180,4.0,12.0,77,0.00,,,0.00,612.00,VWS V14.00,2013-05-16 16:30:00,
2013-05-16 11:45:00,81.0,73.5,29.81,SSE,158,5.0,18.0,78,0.00,,,0.00,293.00,VWS V14.00,2013-05-16 16:45:00,
2013-05-16 12:00:00,81.3,73.4,29.81,SSE,158,5.0,17.0,77,0.00,,,0.00,547.00,VWS V14.00,2013-05-16 17:00:00,
2013-05-16 12:15:00,82.6,73.9,29.81,SSE,158,5.0,15.0,75,0.00,,,0.00,957.00,VWS V14.00,2013-05-16 17:15:00,
2013-05-16 12:30:00,82.2,73.9,29.81,SSE,158,6.0,16.0,76,0.00,,,0.00,924.00,VWS V14.00,2013-05-16 17:30:00,
2013-05-16 12:45:00,82.7,74.0,29.80,SSE,158,6.0,14.0,75,0.00,,,0.00,1059.00,VWS V14.00,2013-05-16 17:45:00,
2013-05-16 13:00:00,82.3,74.0,29.80,SSE,158,6.0,14.0,76,0.00,,,0.00,1164.00,VWS V14.00,2013-05-16 18:00:00,
2013-05-16 13:15:00,81.7,73.4,29.79,SSE,158,6.0,21.0,76,0.00,,,0.00,490.00,VWS V14.00,2013-05-16 18:15:00,
2013-05-16 13:30:00,82.0,73.7,29.79,SSE,158,6.0,19.0,76,0.00,,,0.00,583.00,VWS V14.00,2013-05-16 18:30:00,
2013-05-16 13:45:00,81.4,73.5,29.80,SSE,158,6.0,15.0,77,0.00,,,0.00,406.00,VWS V14.00,2013-05-16 18:45:00,
2013-05-16 14:00:00,81.1,74.0,29.79,South,180,5.0,18.0,79,0.00,,,0.00,409.00,VWS V14.00,2013-05-16 19:00:00,
2013-05-16 14:15:00,81.0,73.9,29.79,SSE,158,5.0,16.0,79,0.00,,,0.00,363.00,VWS V14.00,2013-05-16 19:15:00,
2013-05-16 14:30:00,80.7,74.0,29.78,South,180,5.0,17.0,80,0.00,,,0.00,356.00,VWS V14.00,2013-05-16 19:30:00,
2013-05-16 14:45:00,81.1,74.3,29.78,SSE,158,5.0,19.0,80,0.00,,,0.00,363.00,VWS V14.00,2013-05-16 19:45:00,
2013-05-16 15:00:00,80.6,73.9,29.78,South,180,6.0,16.0,80,0.00,,,0.00,332.00,VWS V14.00,2013-05-16 20:00:00,
2013-05-16 15:15:00,80.9,74.2,29.77,SSE,158,4.0,10.0,80,0.00,,,0.00,332.00,VWS V14.00,2013-05-16 20:15:00,
2013-05-16 15:30:00,80.8,74.1,29.77,SSE,158,4.0,14.0,80,0.00,,,0.00,291.00,VWS V14.00,2013-05-16 20:30:00,
2013-05-16 15:45:00,80.5,74.1,29.77,SSE,158,5.0,12.0,81,0.00,,,0.00,284.00,VWS V14.00,2013-05-16 20:45:00,
2013-05-16 16:00:00,80.0,74.0,29.76,SSE,158,4.0,12.0,82,0.00,,,0.00,225.00,VWS V14.00,2013-05-16 21:00:00,
2013-05-16 16:15:00,79.6,74.0,29.76,SSE,158,5.0,12.0,83,0.00,,,0.00,159.00,VWS V14.00,2013-05-16 21:15:00,
2013-05-16 16:30:00,79.3,73.7,29.76,SSE,158,4.0,11.0,83,0.00,,,0.00,123.00,VWS V14.00,2013-05-16 21:30:00,
2013-05-16 16:45:00,79.4,73.8,29.76,South,180,4.0,14.0,83,0.00,,,0.00,113.00,VWS V14.00,2013-05-16 21:45:00,
2013-05-16 17:00:00,79.2,73.9,29.75,South,180,4.0,13.0,84,0.00,,,0.00,108.00,VWS V14.00,2013-05-16 22:00:00,
2013-05-16 17:15:00,79.0,73.8,29.75,SSE,158,5.0,15.0,84,0.00,,,0.00,94.00,VWS V14.00,2013-05-16 22:15:00,
2013-05-16 17:30:00,78.9,74.0,29.75,South,180,4.0,14.0,85,0.00,,,0.00,82.00,VWS V14.00,2013-05-16 22:30:00,
2013-05-16 17:45:00,78.7,73.8,29.74,South,180,4.0,18.0,85,0.00,,,0.00,78.00,VWS V14.00,2013-05-16 22:45:00,
2013-05-16 18:00:00,78.5,73.6,29.74,SSE,158,4.0,11.0,85,0.00,,,0.00,79.00,VWS V14.00,2013-05-16 23:00:00,
2013-05-16 18:15:00,78.5,74.0,29.73,South,180,4.0,11.0,86,0.00,,,0.00,92.00,VWS V14.00,2013-05-16 23:15:00,
2013-05-16 18:30:00,78.5,74.0,29.73,South,180,5.0,13.0,86,0.00,,,0.00,86.00,VWS V14.00,2013-05-16 23:30:00,
2013-05-16 18:45:00,78.3,73.8,29.73,South,180,4.0,12.0,86,0.00,,,0.00,70.00,VWS V14.00,2013-05-16 23:45:00,
2013-05-16 19:05:00,77.8,73.6,29.74,South,180,4.0,11.0,87,0.00,,,0.00,42.00,VWS V14.00,2013-05-17 00:05:00,
2013-05-16 19:15:00,77.7,73.9,29.74,South,180,3.0,10.0,88,0.00,,,0.00,29.00,VWS V14.00,2013-05-17 00:15:00,
2013-05-16 19:30:00,77.6,73.8,29.74,South,180,3.0,11.0,88,0.00,,,0.00,19.00,VWS V14.00,2013-05-17 00:30:00,
2013-05-16 19:45:00,77.4,73.6,29.75,SSE,158,4.0,13.0,88,0.00,,,0.00,11.00,VWS V14.00,2013-05-17 00:45:00,
2013-05-16 20:00:00,77.2,73.4,29.75,South,180,3.0,10.0,88,0.00,,,0.00,5.00,VWS V14.00,2013-05-17 01:00:00,
2013-05-16 20:15:00,77.0,73.5,29.75,SSE,158,3.0,11.0,89,0.00,,,0.00,0.00,VWS V14.00,2013-05-17 01:15:00,
2013-05-16 20:30:00,76.9,73.4,29.76,South,180,4.0,16.0,89,0.00,,,0.00,0.00,VWS V14.00,2013-05-17 01:30:00,
2013-05-16 20:45:00,76.7,73.2,29.76,South,180,4.0,12.0,89,0.00,,,0.00,0.00,VWS V14.00,2013-05-17 01:45:00,
2013-05-16 21:00:00,76.5,73.3,29.76,SSE,158,3.0,11.0,90,0.00,,,0.00,0.00,VWS V14.00,2013-05-17 02:00:00,
2013-05-16 21:15:00,76.4,73.2,29.77,South,180,3.0,11.0,90,0.00,,,0.00,0.00,VWS V14.00,2013-05-17 02:15:00,
2013-05-16 21:30:00,76.3,73.2,29.77,South,180,3.0,11.0,90,0.00,,,0.00,0.00,VWS V14.00,2013-05-17 02:30:00,
2013-05-16 21:45:00,76.2,73.1,29.77,SSE,158,3.0,14.0,90,0.00,,,0.00,0.00,VWS V14.00,2013-05-17 02:45:00,
2013-05-16 22:00:00,76.2,73.1,29.78,South,180,4.0,11.0,90,0.00,,,0.00,0.00,VWS V14.00,2013-05-17 03:00:00,
2013-05-16 22:15:00,76.0,73.2,29.78,SSE,158,4.0,12.0,91,0.00,,,0.00,0.00,VWS V14.00,2013-05-17 03:15:00,
2013-05-16 22:30:00,75.9,73.1,29.78,SSE,158,4.0,11.0,91,0.00,,,0.00,0.00,VWS V14.00,2013-05-17 03:30:00,
2013-05-16 22:38:00,75.9,73.1,29.78,SSE,158,4.0,11.0,91,0.00,,,0.00,0.00,VWS V14.00,2013-05-17 03:38:00,
2013-05-16 22:45:00,75.9,73.1,29.78,ESE,122,5.0,9.0,91,0.00,,,0.00,0.00,VWS V14.00,2013-05-17 03:45:00,
2013-05-16 23:00:00,75.6,72.8,29.78,SSE,158,3.0,10.0,91,0.00,,,0.00,0.00,VWS V14.00,2013-05-17 04:00:00,
2013-05-16 23:15:00,75.5,72.7,29.79,South,180,3.0,11.0,91,0.00,,,0.00,0.00,VWS V14.00,2013-05-17 04:15:00,
2013-05-16 23:30:00,75.3,72.8,29.78,South,180,3.0,13.0,92,0.00,,,0.00,0.00,VWS V14.00,2013-05-17 04:30:00,
2013-05-16 23:45:00,75.3,72.8,29.78,South,180,3.0,13.0,92,0.00,,,0.00,0.00,VWS V14.00,2013-05-17 04:45:00,